Atlantic City International Airport Atlantic City US
ICAO: KACY
IATA: ACY
Category: Medium
Scheduled Services: Yes

Elevation: 75 ft
TransAlt. 18000 ft.

Airport Communications:
APP/DEP:38.55
APP/DEP:124.6
ATIS:108.6
CLNC DEL:127.85
GND:121.9
ANG OPS:138.12
MILLVILLE RDO:122.55
TWR:120.3

KACY Zoom In..

Runways:

(A) RW 04 length 6144 ft width 150 ft
---- / hdg 38

(B) RW 13 length 10000 ft width 150 ft
ILS 109.10 / hdg 128

(C) RW 22 length 6144 ft width 150 ft
---- / hdg 218

(D) RW 31 length 10000 ft width 150 ft
ILS 109.10 / hdg 308

Location; KACY
Day. 19 / Time. 02.54 Zulu
* Altimeter: 29.97
* Temperature: 21° c. 69.8°f.
* Wind from: 310° Speed 04 kn.
Dewpoint: 17° c.
Visibility: 10 Statute Miles.
Clouds: Scattered 8500 ft.

KACY 190254Z 31004KT 10SM SCT085 21/17 A2997 RMK AO2 SLP147 T02110172 51012


Wind From 310°
Speed 04 kn.

 
 
jpsmedia.com for Web Design worldairports.se 2018   terms of use